Time;durP1;ratioP1;P1;durP2;ratioP2;P2;SDS_P1;SDS_P2;PMS_P1;PMS_P2;Temp;Humidity;BMP_temperature;BMP_pressure;BME280_temperature;BME280_humidity;BME280_pressure;Samples;Min_cycle;Max_cycle;Signal;HPM_P1;HPM_P2
2021/12/05 00:16:55;;;;;;;15.35;4.00;;;5.10;99.90;;;;;;5051417;28;20457;-80
2021/12/05 00:20:46;;;;;;;12.27;3.10;;;5.10;99.90;;;;;;5055371;28;20025;-78
2021/12/05 00:23:18;;;;;;;19.70;3.80;;;5.00;99.90;;;;;;5055218;28;20041;-78
2021/12/05 00:25:52;;;;;;;18.33;4.75;;;5.10;99.90;;;;;;5054597;28;20025;-78
2021/12/05 00:31:17;;;;;;;27.50;4.90;;;5.10;99.90;;;;;;5055175;28;20029;-80
2021/12/05 00:55:19;;;;;;;31.52;5.28;;;5.30;99.90;;;;;;5057304;28;20082;-79
2021/12/05 01:16:04;;;;;;;20.10;4.82;;;5.30;99.90;;;;;;5054047;28;20025;-79
2021/12/05 01:18:29;;;;;;;;;;;5.30;99.90;;;;;;5054056;28;20028;-79
2021/12/05 01:21:00;;;;;;;14.40;3.85;;;5.20;99.90;;;;;;5053023;28;19911;-78
2021/12/05 01:23:37;;;;;;;15.75;4.05;;;5.20;99.90;;;;;;5053523;28;20033;-79
2021/12/05 01:26:07;;;;;;;17.27;4.53;;;5.20;99.90;;;;;;5053997;28;20479;-79
2021/12/05 01:29:00;;;;;;;22.13;4.13;;;5.20;99.90;;;;;;5052971;28;20473;-76
2021/12/05 01:31:43;;;;;;;21.27;4.15;;;5.20;99.90;;;;;;5053491;28;20052;-78
2021/12/05 01:55:22;;;;;;;16.42;3.33;;;5.00;99.90;;;;;;5054588;28;20029;-78
2021/12/05 02:07:51;;;;;;;14.85;3.60;;;5.00;99.90;;;;;;5053214;28;20128;-79
2021/12/05 02:31:29;;;;;;;21.73;3.90;;;4.80;99.90;;;;;;5053550;28;20078;-79
2021/12/05 02:33:45;;;;;;;16.08;3.33;;;4.80;99.90;;;;;;5050645;28;20079;-79
2021/12/05 02:41:41;;;;;;;10.00;3.40;;;4.80;99.90;;;;;;5053737;28;20104;-79
2021/12/05 02:44:21;;;;;;;18.90;3.38;;;4.80;99.90;;;;;;5053842;28;20041;-79
2021/12/05 02:47:03;;;;;;;14.77;2.90;;;4.80;99.90;;;;;;5053259;28;20029;-78
2021/12/05 02:49:31;;;;;;;25.08;3.78;;;4.90;99.90;;;;;;5053469;28;20388;-79
2021/12/05 02:52:02;;;;;;;13.65;3.40;;;5.00;99.90;;;;;;5052645;28;20021;-78
2021/12/05 02:54:30;;;;;;;;;;;5.00;99.90;;;;;;5053625;28;20477;-79
2021/12/05 02:56:57;;;;;;;16.65;3.63;;;5.00;99.90;;;;;;5055866;28;19905;-79
2021/12/05 03:02:03;;;;;;;22.00;3.60;;;5.00;99.90;;;;;;5052872;28;20532;-79
2021/12/05 03:04:33;;;;;;;18.63;4.50;;;5.10;99.90;;;;;;5052260;28;20033;-80
2021/12/05 03:07:04;;;;;;;19.35;4.40;;;5.10;99.90;;;;;;5052057;28;20033;-80
2021/12/05 03:09:30;;;;;;;25.83;4.85;;;5.10;99.90;;;;;;5055017;28;20057;-80
2021/12/05 03:11:56;;;;;;;12.75;3.53;;;5.10;99.90;;;;;;5052696;28;20465;-80
2021/12/05 03:14:22;;;;;;;18.13;4.05;;;5.10;99.90;;;;;;5052039;28;20025;-79
2021/12/05 03:16:48;;;;;;;18.20;4.43;;;5.10;99.90;;;;;;5052630;28;20118;-79
2021/12/05 03:19:14;;;;;;;22.73;5.22;;;5.10;99.90;;;;;;5052225;28;20029;-79
2021/12/05 03:21:42;;;;;;;18.65;4.25;;;5.10;99.90;;;;;;5052072;28;20040;-80
2021/12/05 03:24:08;;;;;;;12.20;4.35;;;5.10;99.90;;;;;;5059536;28;20068;-78
2021/12/05 03:26:37;;;;;;;14.15;4.53;;;5.10;99.90;;;;;;5052459;28;20116;-79
2021/12/05 03:29:05;;;;;;;18.95;3.55;;;5.20;99.90;;;;;;5051975;28;20039;-79
2021/12/05 03:31:31;;;;;;;11.27;3.85;;;5.20;99.90;;;;;;5052288;28;20094;-78
2021/12/05 03:33:58;;;;;;;12.25;4.88;;;5.20;99.90;;;;;;5052051;28;20029;-79
2021/12/05 03:36:26;;;;;;;12.50;4.38;;;5.20;99.90;;;;;;5051226;28;20033;-78
2021/12/05 03:38:52;;;;;;;16.00;5.47;;;5.20;99.90;;;;;;5052217;28;20028;-79
2021/12/05 03:41:18;;;;;;;11.40;4.47;;;5.30;99.90;;;;;;5051186;28;20397;-80
2021/12/05 03:43:46;;;;;;;16.73;4.30;;;5.20;99.90;;;;;;5051775;28;20087;-78
2021/12/05 03:46:13;;;;;;;17.20;4.97;;;5.30;99.90;;;;;;5051707;28;20052;-79
2021/12/05 03:48:50;;;;;;;13.27;4.85;;;5.20;99.90;;;;;;5051881;28;20029;-78
2021/12/05 03:51:18;;;;;;;8.98;5.22;;;5.20;99.90;;;;;;5052217;28;20017;-80
2021/12/05 03:53:44;;;;;;;11.50;5.20;;;5.20;99.90;;;;;;5052872;28;20028;-78
2021/12/05 03:56:11;;;;;;;13.55;5.47;;;5.30;99.90;;;;;;5052249;28;20096;-77
2021/12/05 03:58:38;;;;;;;10.50;4.60;;;5.30;99.90;;;;;;5052070;28;20028;-78
2021/12/05 04:01:06;;;;;;;18.17;5.72;;;5.20;99.90;;;;;;5051960;28;20060;-79
2021/12/05 04:03:32;;;;;;;7.68;3.90;;;5.30;99.90;;;;;;5051062;28;20045;-79
2021/12/05 04:06:00;;;;;;;14.75;4.85;;;5.30;99.90;;;;;;5052090;28;20052;-78
2021/12/05 04:08:27;;;;;;;5.55;3.83;;;5.20;99.90;;;;;;5051202;28;20087;-77
2021/12/05 04:10:58;;;;;;;8.95;4.32;;;5.20;99.90;;;;;;5051122;28;20083;-79
2021/12/05 04:13:24;;;;;;;9.25;5.03;;;5.20;99.90;;;;;;5051548;28;20401;-78
2021/12/05 04:15:51;;;;;;;9.63;5.03;;;5.20;99.90;;;;;;5051970;28;20017;-80
2021/12/05 04:18:18;;;;;;;13.27;5.57;;;5.20;99.90;;;;;;5050866;28;20037;-79
2021/12/05 04:20:44;;;;;;;13.32;5.20;;;5.20;99.90;;;;;;5051975;28;20029;-80
2021/12/05 04:23:09;;;;;;;9.43;5.30;;;5.10;99.90;;;;;;5051565;28;20029;-79
2021/12/05 04:25:37;;;;;;;11.32;6.03;;;5.10;99.90;;;;;;5050669;28;20024;-79
2021/12/05 04:28:05;;;;;;;10.63;5.25;;;5.20;99.90;;;;;;5051646;28;20123;-79
2021/12/05 04:30:32;;;;;;;13.63;5.93;;;5.20;99.90;;;;;;5051107;28;20028;-79
2021/12/05 04:32:58;;;;;;;14.30;5.97;;;5.10;99.90;;;;;;5052674;28;20025;-77
2021/12/05 04:35:24;;;;;;;10.10;5.63;;;5.10;99.90;;;;;;5053476;28;20039;-78
2021/12/05 04:37:50;;;;;;;11.13;5.45;;;5.10;99.90;;;;;;5051955;28;20461;-79
2021/12/05 04:40:16;;;;;;;12.25;5.75;;;5.10;99.90;;;;;;5051342;28;20025;-79
2021/12/05 04:42:42;;;;;;;12.20;5.70;;;5.10;99.90;;;;;;5051866;28;20108;-80
2021/12/05 04:45:15;;;;;;;17.58;5.97;;;5.10;99.90;;;;;;5050770;28;20025;-78
2021/12/05 04:47:41;;;;;;;14.60;6.95;;;5.10;99.90;;;;;;5051839;28;20041;-78
2021/12/05 04:50:08;;;;;;;13.32;5.70;;;5.20;99.90;;;;;;5051873;28;20025;-79
2021/12/05 04:52:43;;;;;;;15.00;7.22;;;5.20;99.90;;;;;;5050496;28;20051;-79
2021/12/05 04:55:10;;;;;;;9.98;7.13;;;5.10;99.90;;;;;;5051628;28;20029;-80
2021/12/05 04:57:35;;;;;;;14.10;6.78;;;5.20;99.90;;;;;;5055192;28;20049;-81
2021/12/05 05:00:04;;;;;;;19.38;7.20;;;5.10;99.90;;;;;;5054511;28;20059;-80
2021/12/05 05:02:30;;;;;;;12.48;7.05;;;5.10;99.90;;;;;;5054257;28;20024;-79
2021/12/05 05:04:55;;;;;;;11.45;6.93;;;5.10;99.90;;;;;;5054935;28;20029;-79
2021/12/05 05:07:25;;;;;;;13.88;6.28;;;5.10;99.90;;;;;;5053613;28;20481;-78
2021/12/05 05:10:06;;;;;;;12.48;7.28;;;5.20;99.90;;;;;;5054469;28;20103;-79
2021/12/05 05:12:31;;;;;;;14.82;7.82;;;5.20;99.90;;;;;;5057366;28;20041;-79
2021/12/05 05:14:57;;;;;;;12.35;7.20;;;5.20;99.90;;;;;;5053969;28;20029;-80
2021/12/05 05:17:24;;;;;;;15.43;7.20;;;5.20;99.90;;;;;;5054394;28;20044;-80
2021/12/05 05:19:54;;;;;;;16.10;6.38;;;5.20;99.90;;;;;;5054009;28;20417;-80
2021/12/05 05:39:06;;;;;;;14.82;8.68;;;5.20;99.90;;;;;;5054465;28;20032;-78
2021/12/05 05:46:56;;;;;;;16.40;6.75;;;5.10;99.90;;;;;;5055050;28;20032;-79
2021/12/05 05:49:50;;;;;;;10.68;5.85;;;5.10;99.90;;;;;;5053504;28;20712;-79
2021/12/05 05:52:17;;;;;;;14.10;6.18;;;5.20;99.90;;;;;;5053859;28;20028;-81
2021/12/05 05:54:46;;;;;;;10.27;6.53;;;5.30;99.90;;;;;;5053938;28;20025;-79
2021/12/05 06:05:06;;;;;;;9.02;5.18;;;5.20;99.90;;;;;;5053964;28;20401;-79
2021/12/05 06:07:33;;;;;;;9.45;5.25;;;5.20;99.90;;;;;;5053361;28;20017;-79
2021/12/05 06:09:59;;;;;;;9.70;5.32;;;5.20;99.90;;;;;;5052792;28;20116;-79
2021/12/05 06:12:25;;;;;;;15.38;6.25;;;5.20;99.90;;;;;;5053493;28;20112;-79
2021/12/05 06:14:50;;;;;;;6.88;5.32;;;5.20;99.90;;;;;;5053520;28;20401;-79
2021/12/05 06:17:18;;;;;;;9.45;5.20;;;5.30;99.90;;;;;;5052403;28;20029;-79
2021/12/05 06:19:43;;;;;;;14.88;6.13;;;5.30;99.90;;;;;;5053658;28;20025;-79
2021/12/05 06:22:09;;;;;;;7.90;5.45;;;5.30;99.90;;;;;;5053404;28;20453;-79
2021/12/05 06:24:35;;;;;;;8.32;5.50;;;5.30;99.90;;;;;;5052582;28;20033;-80
2021/12/05 06:27:01;;;;;;;9.90;5.85;;;5.20;99.90;;;;;;5053503;28;20116;-79
2021/12/05 06:29:33;;;;;;;6.68;4.82;;;5.20;99.90;;;;;;5053115;28;20167;-80
2021/12/05 06:37:48;;;;;;;5.55;4.93;;;5.20;99.90;;;;;;5040383;28;20036;-81
2021/12/05 06:40:22;;;;;;;11.02;5.00;;;5.20;99.90;;;;;;5053504;28;20064;-79
2021/12/05 06:42:55;;;;;;;7.97;5.47;;;5.10;99.90;;;;;;5054361;28;20032;-79
2021/12/05 06:48:05;;;;;;;5.05;4.03;;;5.10;99.90;;;;;;5053638;28;20064;-80
2021/12/05 06:50:30;;;;;;;6.35;4.00;;;5.20;99.90;;;;;;5054250;28;20029;-79
2021/12/05 06:52:56;;;;;;;4.85;3.92;;;5.10;99.90;;;;;;5053173;28;20083;-78
2021/12/05 06:55:21;;;;;;;8.98;3.78;;;5.10;99.90;;;;;;5053807;28;20021;-79
2021/12/05 06:57:48;;;;;;;4.88;4.10;;;5.10;99.90;;;;;;5053790;28;20082;-79
2021/12/05 07:00:22;;;;;;;3.55;3.25;;;5.10;99.90;;;;;;5052918;28;20025;-79
2021/12/05 07:02:47;;;;;;;7.47;3.47;;;5.10;99.90;;;;;;5053303;28;20036;-79
2021/12/05 07:06:00;;;;;;;3.97;3.15;;;5.00;99.90;;;;;;5052219;28;20025;-79
2021/12/05 07:08:03;;;;;;;5.78;3.42;;;5.00;99.90;;;;;;5050263;28;20032;-79
2021/12/05 07:10:31;;;;;;;5.13;3.42;;;5.00;99.90;;;;;;5052192;28;20143;-80
2021/12/05 07:13:37;;;;;;;4.95;3.65;;;4.90;99.90;;;;;;5052482;28;20557;-78
2021/12/05 07:23:44;;;;;;;5.45;3.63;;;5.00;99.90;;;;;;5052986;28;20061;-79
2021/12/05 07:26:19;;;;;;;8.70;3.95;;;4.90;99.90;;;;;;5056520;28;20386;-80
2021/12/05 07:42:28;;;;;;;4.38;3.97;;;4.90;99.90;;;;;;5030567;28;20036;-80
2021/12/05 07:44:56;;;;;;;7.15;4.40;;;4.90;99.90;;;;;;5030777;28;20474;-81
2021/12/05 07:47:27;;;;;;;6.57;4.80;;;4.90;99.90;;;;;;5030685;28;20021;-80
2021/12/05 07:49:53;;;;;;;;;;;4.90;99.90;;;;;;5031571;28;20034;-81
2021/12/05 07:52:24;;;;;;;5.22;4.72;;;4.90;99.90;;;;;;5037556;28;19952;-80
2021/12/05 07:54:56;;;;;;;8.70;5.32;;;4.90;99.90;;;;;;5030495;28;20018;-79
2021/12/05 07:57:29;;;;;;;6.53;4.57;;;5.00;99.90;;;;;;5030963;28;20084;-79
2021/12/05 08:00:07;;;;;;;5.60;5.10;;;5.00;99.90;;;;;;5037236;28;20026;-80
2021/12/05 08:16:18;;;;;;;8.43;6.00;;;4.90;99.90;;;;;;5051827;28;20546;-82
2021/12/05 08:18:44;;;;;;;7.47;6.30;;;4.90;99.90;;;;;;5044030;28;20047;-81
2021/12/05 08:21:11;;;;;;;11.32;6.78;;;5.00;99.90;;;;;;5051763;28;20013;-81
2021/12/05 08:23:37;;;;;;;9.85;6.75;;;5.00;99.90;;;;;;5047977;28;20061;-81
2021/12/05 08:26:09;;;;;;;11.73;7.13;;;5.00;99.90;;;;;;5052097;28;20090;-81
2021/12/05 08:29:04;;;;;;;9.18;6.90;;;5.00;99.90;;;;;;5052106;28;20033;-82
2021/12/05 08:31:44;;;;;;;11.85;7.10;;;5.00;99.90;;;;;;5054213;28;20100;-81
2021/12/05 08:42:35;;;;;;;6.97;5.88;;;5.20;99.90;;;;;;5053710;28;20112;-84
2021/12/05 09:26:01;;;;;;;11.75;4.90;;;5.50;99.90;;;;;;5036894;28;20022;-81
2021/12/05 09:29:04;;;;;;;7.95;5.03;;;5.60;99.90;;;;;;5035291;28;20473;-83
2021/12/05 09:53:32;;;;;;;7.38;5.22;;;6.10;99.90;;;;;;5056182;28;20032;-82
2021/12/05 10:17:49;;;;;;;8.13;5.60;;;6.70;99.90;;;;;;5052737;28;20112;-81
2021/12/05 10:37:51;;;;;;;15.23;6.03;;;6.90;99.90;;;;;;5044561;28;20473;-81
2021/12/05 10:40:22;;;;;;;12.05;6.90;;;7.00;99.90;;;;;;5048754;28;20075;-81
2021/12/05 10:42:53;;;;;;;9.73;6.55;;;7.00;99.90;;;;;;5050541;28;20366;-81
2021/12/05 10:45:33;;;;;;;13.25;6.68;;;7.10;99.90;;;;;;5051323;28;20040;-80
2021/12/05 10:48:05;;;;;;;15.35;7.05;;;7.10;99.90;;;;;;5051568;28;20555;-81
2021/12/05 10:50:42;;;;;;;14.65;8.00;;;7.10;99.90;;;;;;5058978;28;20454;-80
2021/12/05 10:53:34;;;;;;;17.63;7.60;;;7.00;99.90;;;;;;5058515;28;20033;-80
2021/12/05 10:56:26;;;;;;;21.35;9.25;;;7.10;99.90;;;;;;5053534;28;20520;-80
2021/12/05 10:58:56;;;;;;;12.18;7.75;;;7.00;99.90;;;;;;5052118;28;20037;-81
2021/12/05 11:01:32;;;;;;;15.50;8.35;;;7.00;99.90;;;;;;5047997;28;20059;-81
2021/12/05 11:04:14;;;;;;;13.90;8.20;;;7.00;99.90;;;;;;5048556;28;20052;-82
2021/12/05 11:06:42;;;;;;;15.68;8.07;;;7.00;99.90;;;;;;5051681;28;20032;-81
2021/12/05 11:09:17;;;;;;;16.42;9.35;;;6.90;99.90;;;;;;5051472;28;20058;-80
2021/12/05 11:11:46;;;;;;;17.55;8.88;;;6.90;99.90;;;;;;5047412;28;20064;-80
2021/12/05 11:14:17;;;;;;;16.63;9.57;;;6.90;99.90;;;;;;5049743;28;20124;-81
2021/12/05 11:16:49;;;;;;;13.75;8.82;;;6.90;99.90;;;;;;5050558;28;20017;-80
2021/12/05 11:19:24;;;;;;;17.67;9.27;;;6.90;99.90;;;;;;5050805;28;20058;-82
2021/12/05 11:21:59;;;;;;;20.00;11.23;;;6.90;99.90;;;;;;5050678;28;20020;-81
2021/12/05 11:24:28;;;;;;;21.75;9.80;;;7.00;99.90;;;;;;5050345;28;20063;-82
2021/12/05 11:27:09;;;;;;;20.10;10.03;;;7.00;99.90;;;;;;5050552;28;20028;-81
2021/12/05 11:29:48;;;;;;;20.27;10.52;;;7.00;99.90;;;;;;5048567;28;20094;-81
2021/12/05 11:32:20;;;;;;;19.45;10.43;;;7.00;99.90;;;;;;5050415;28;20031;-80
2021/12/05 11:34:48;;;;;;;18.98;10.05;;;7.00;99.90;;;;;;5049388;28;20025;-81
2021/12/05 11:37:14;;;;;;;20.20;10.57;;;7.00;99.90;;;;;;5039569;28;20025;-79
2021/12/05 11:39:40;;;;;;;16.70;10.50;;;7.10;99.90;;;;;;5041637;28;20909;-78
2021/12/05 11:42:14;;;;;;;19.83;10.82;;;7.10;99.90;;;;;;5052108;28;20108;-79
2021/12/05 11:44:41;;;;;;;21.02;11.18;;;7.10;99.90;;;;;;5051821;28;20033;-80
2021/12/05 11:47:19;;;;;;;17.42;11.43;;;7.10;99.90;;;;;;5052262;28;20045;-81
2021/12/05 11:49:45;;;;;;;17.77;11.90;;;7.20;99.90;;;;;;5051726;28;20033;-80
2021/12/05 11:52:14;;;;;;;20.38;11.88;;;7.10;99.90;;;;;;5052060;28;20044;-82
2021/12/05 11:54:43;;;;;;;15.70;10.73;;;7.70;99.90;;;;;;5050920;28;20087;-83
2021/12/05 11:57:19;;;;;;;24.90;12.02;;;7.10;99.90;;;;;;5053874;28;20048;-82
2021/12/05 12:00:15;;;;;;;19.30;11.85;;;7.10;99.90;;;;;;5051099;28;20040;-81
2021/12/05 12:02:42;;;;;;;15.25;11.43;;;7.20;99.90;;;;;;5047678;28;20428;-81
2021/12/05 12:05:08;;;;;;;25.42;13.38;;;7.20;99.90;;;;;;5053023;28;20041;-80
2021/12/05 12:07:44;;;;;;;23.15;13.25;;;7.10;99.90;;;;;;5055641;28;20432;-80
2021/12/05 12:10:14;;;;;;;20.17;14.07;;;7.20;99.90;;;;;;5055184;28;20110;-81
2021/12/05 12:12:42;;;;;;;19.60;14.32;;;7.20;99.90;;;;;;5051299;28;20021;-81
2021/12/05 12:15:09;;;;;;;23.10;16.33;;;7.20;99.90;;;;;;5054317;28;20529;-81
2021/12/05 12:17:38;;;;;;;25.67;15.85;;;7.20;99.90;;;;;;5054023;28;20040;-80
2021/12/05 12:20:09;;;;;;;25.92;17.13;;;7.20;99.90;;;;;;5055242;28;20364;-81
2021/12/05 12:22:34;;;;;;;21.65;16.20;;;7.30;99.90;;;;;;5054773;28;20028;-81
2021/12/05 12:25:06;;;;;;;26.02;16.60;;;7.20;99.90;;;;;;5055264;28;20939;-80
2021/12/05 12:27:31;;;;;;;22.67;15.38;;;7.30;99.90;;;;;;5055418;28;20059;-81
2021/12/05 12:29:59;;;;;;;23.83;15.45;;;7.30;99.90;;;;;;5055480;28;20056;-81
2021/12/05 12:32:32;;;;;;;18.88;13.77;;;7.30;99.90;;;;;;5063478;28;20113;-80
2021/12/05 12:35:05;;;;;;;23.35;15.55;;;7.40;99.90;;;;;;5066427;28;20024;-81
2021/12/05 12:37:50;;;;;;;23.90;16.50;;;7.30;99.90;;;;;;5058716;28;20083;-80
2021/12/05 12:40:30;;;;;;;20.75;15.52;;;7.40;99.90;;;;;;5051841;28;20035;-81
2021/12/05 12:42:55;;;;;;;23.87;15.10;;;7.40;99.90;;;;;;5054080;28;20032;-80
2021/12/05 12:45:21;;;;;;;20.50;13.82;;;7.40;99.90;;;;;;5054355;28;20055;-80
2021/12/05 12:47:55;;;;;;;18.65;13.27;;;7.40;99.90;;;;;;5057896;28;20025;-81
2021/12/05 12:50:40;;;;;;;19.85;13.48;;;7.40;99.90;;;;;;5055097;28;20021;-81
2021/12/05 12:53:37;;;;;;;20.05;13.38;;;7.40;99.90;;;;;;5052664;28;20059;-81
2021/12/05 12:56:17;;;;;;;17.30;12.63;;;7.50;99.90;;;;;;5050654;28;20112;-81
2021/12/05 12:58:49;;;;;;;17.38;12.00;;;7.50;99.90;;;;;;5051258;28;20140;-81
2021/12/05 13:10:09;;;;;;;16.30;12.48;;;7.40;99.90;;;;;;5051341;28;20512;-81
2021/12/05 13:12:48;;;;;;;16.05;12.85;;;7.50;99.90;;;;;;5053421;28;20163;-81
2021/12/05 13:15:16;;;;;;;15.30;12.20;;;7.40;99.90;;;;;;5050286;28;20063;-79
2021/12/05 13:17:43;;;;;;;17.00;12.50;;;7.40;99.90;;;;;;5052256;28;20021;-80
2021/12/05 13:20:11;;;;;;;18.15;13.50;;;7.30;99.90;;;;;;5053276;28;20060;-81
2021/12/05 13:23:06;;;;;;;15.05;12.55;;;7.40;99.90;;;;;;5052893;28;20029;-80
2021/12/05 13:25:36;;;;;;;18.50;12.65;;;7.40;99.90;;;;;;5022524;28;20037;-80
2021/12/05 13:28:33;;;;;;;15.85;13.20;;;7.40;99.90;;;;;;5052097;28;20056;-82
2021/12/05 13:31:00;;;;;;;19.25;14.75;;;7.30;99.90;;;;;;5047631;28;20482;-80
2021/12/05 13:33:31;;;;;;;21.27;15.55;;;7.30;99.90;;;;;;5050185;28;20033;-81
2021/12/05 13:36:17;;;;;;;17.63;13.00;;;7.40;99.90;;;;;;5051155;28;20021;-81
2021/12/05 13:38:42;;;;;;;19.33;13.18;;;7.40;99.90;;;;;;5051913;28;20057;-81
2021/12/05 13:41:16;;;;;;;18.33;14.07;;;7.30;99.90;;;;;;5051370;28;20067;-82
2021/12/05 13:44:02;;;;;;;18.45;14.38;;;7.30;99.90;;;;;;5049021;28;20438;-81
2021/12/05 13:46:39;;;;;;;17.73;13.75;;;7.20;99.90;;;;;;5049444;28;20023;-81
2021/12/05 13:49:34;;;;;;;17.83;13.88;;;7.20;99.90;;;;;;5052069;28;20025;-79
2021/12/05 13:52:36;;;;;;;19.80;14.35;;;7.10;99.90;;;;;;5054685;28;20029;-79
2021/12/05 13:55:30;;;;;;;20.08;13.30;;;7.00;99.90;;;;;;5052944;28;20024;-81
2021/12/05 13:58:14;;;;;;;17.13;13.98;;;7.00;99.90;;;;;;5054617;28;20021;-80
2021/12/05 14:00:42;;;;;;;19.27;13.60;;;7.00;99.90;;;;;;5054365;28;20022;-80
2021/12/05 14:03:07;;;;;;;23.70;15.63;;;7.00;99.90;;;;;;5054167;28;20029;-80
2021/12/05 14:05:33;;;;;;;20.33;14.45;;;6.90;99.90;;;;;;5054068;28;20044;-81
2021/12/05 14:07:59;;;;;;;20.88;15.05;;;6.90;99.90;;;;;;5053766;28;20032;-80
2021/12/05 14:10:25;;;;;;;25.05;14.85;;;6.80;99.90;;;;;;5054336;28;20406;-80
2021/12/05 14:12:50;;;;;;;18.30;13.32;;;6.80;99.90;;;;;;5057329;28;20040;-80
2021/12/05 14:15:16;;;;;;;16.42;12.73;;;6.80;99.90;;;;;;5060890;28;20021;-80
2021/12/05 14:17:44;;;;;;;18.65;13.98;;;6.80;99.90;;;;;;5064043;28;20550;-80
2021/12/05 14:20:14;;;;;;;20.52;14.05;;;6.70;99.90;;;;;;5060842;28;20025;-80
2021/12/05 14:22:42;;;;;;;15.00;12.00;;;6.70;99.90;;;;;;5056970;28;20561;-79
2021/12/05 14:25:17;;;;;;;20.05;12.85;;;6.70;99.90;;;;;;5055103;28;20500;-81
2021/12/05 14:27:46;;;;;;;14.70;11.77;;;6.70;99.90;;;;;;5054785;28;20469;-80
2021/12/05 14:30:18;;;;;;;14.75;12.00;;;6.60;99.90;;;;;;5052786;28;20033;-80
2021/12/05 14:32:46;;;;;;;13.60;10.73;;;6.60;99.90;;;;;;5053727;28;20041;-80
2021/12/05 14:35:15;;;;;;;11.30;9.82;;;6.60;99.90;;;;;;5053404;28;20021;-81
2021/12/05 14:37:43;;;;;;;12.70;10.20;;;6.60;99.90;;;;;;5053609;28;20053;-81
2021/12/05 14:40:30;;;;;;;13.48;10.10;;;6.50;99.90;;;;;;5051037;28;20024;-79
2021/12/05 14:42:59;;;;;;;13.75;10.45;;;6.50;99.90;;;;;;5052397;28;20496;-79
2021/12/05 14:45:27;;;;;;;13.77;10.95;;;6.50;99.90;;;;;;5037900;28;20036;-78
2021/12/05 14:47:56;;;;;;;15.00;11.57;;;6.40;99.90;;;;;;5037875;28;20430;-80
2021/12/05 14:50:26;;;;;;;13.70;10.18;;;6.40;99.90;;;;;;5035582;28;20029;-80
2021/12/05 14:52:55;;;;;;;15.80;10.50;;;6.40;99.90;;;;;;5040823;28;20067;-80
2021/12/05 14:55:22;;;;;;;12.95;10.65;;;6.40;99.90;;;;;;5035524;28;20041;-79
2021/12/05 14:57:54;;;;;;;12.38;10.00;;;6.40;99.90;;;;;;5041980;28;20040;-78
2021/12/05 15:00:33;;;;;;;14.35;10.82;;;6.40;99.90;;;;;;5046955;28;20187;-80
2021/12/05 15:03:13;;;;;;;13.68;10.60;;;6.30;99.90;;;;;;5042239;28;21009;-81
2021/12/05 15:05:41;;;;;;;13.93;10.63;;;6.40;99.90;;;;;;5034227;28;20137;-81
2021/12/05 15:08:11;;;;;;;11.10;9.50;;;6.30;99.90;;;;;;5037224;28;20029;-79
2021/12/05 15:10:38;;;;;;;14.93;9.32;;;6.30;99.90;;;;;;5042813;28;20056;-78
2021/12/05 15:13:04;;;;;;;10.13;7.90;;;5.90;99.90;;;;;;5035013;28;20076;-81
2021/12/05 15:15:30;;;;;;;9.27;8.25;;;6.30;99.90;;;;;;5034142;28;20071;-80
2021/12/05 15:17:57;;;;;;;10.35;8.25;;;6.30;99.90;;;;;;5037345;28;20025;-79
2021/12/05 15:20:26;;;;;;;10.15;8.18;;;6.30;99.90;;;;;;5037140;28;20025;-79
2021/12/05 15:23:01;;;;;;;9.57;8.25;;;6.30;99.90;;;;;;5037571;28;20025;-80
2021/12/05 15:25:28;;;;;;;9.32;7.53;;;6.20;99.90;;;;;;5033999;28;20424;-79
2021/12/05 15:27:55;;;;;;;8.82;7.88;;;6.20;99.90;;;;;;5036122;28;20021;-78
2021/12/05 15:30:23;;;;;;;10.70;8.13;;;6.10;99.90;;;;;;5032418;28;20033;-81
2021/12/05 15:32:58;;;;;;;8.75;7.53;;;6.10;99.90;;;;;;5038531;28;20033;-81
2021/12/05 15:35:24;;;;;;;8.50;7.05;;;6.10;99.90;;;;;;5037013;28;20112;-81
2021/12/05 15:38:00;;;;;;;7.95;6.95;;;6.10;99.90;;;;;;5049012;28;20028;-79
2021/12/05 15:40:28;;;;;;;8.05;7.20;;;6.00;99.90;;;;;;5041426;28;20102;-80
2021/12/05 15:43:11;;;;;;;8.90;6.97;;;6.00;99.90;;;;;;5049755;28;20055;-82
2021/12/05 15:45:39;;;;;;;7.38;6.40;;;6.00;99.90;;;;;;5042435;28;20033;-82
2021/12/05 15:48:05;;;;;;;7.43;6.68;;;6.00;99.90;;;;;;5038993;28;20025;-82
2021/12/05 15:50:33;;;;;;;15.05;10.23;;;6.00;99.90;;;;;;5045726;28;20092;-82
2021/12/05 15:53:02;;;;;;;16.33;10.32;;;5.90;99.90;;;;;;5054250;28;20423;-81
2021/12/05 15:55:39;;;;;;;10.45;9.45;;;5.90;99.90;;;;;;5045716;28;20052;-82
2021/12/05 15:58:18;;;;;;;10.00;8.73;;;5.80;99.90;;;;;;5044870;28;20041;-80
2021/12/05 16:00:50;;;;;;;8.90;8.00;;;5.80;99.90;;;;;;5061729;28;20025;-80
2021/12/05 16:03:20;;;;;;;8.00;7.18;;;5.80;99.90;;;;;;5044697;28;20084;-81
2021/12/05 16:05:59;;;;;;;8.90;7.70;;;5.80;99.90;;;;;;5034843;28;20436;-81
2021/12/05 16:08:29;;;;;;;10.25;7.72;;;5.70;99.90;;;;;;5034154;28;20040;-82
2021/12/05 16:10:58;;;;;;;8.95;8.02;;;5.70;99.90;;;;;;5037100;28;20505;-80
2021/12/05 16:13:38;;;;;;;7.70;6.97;;;5.70;99.90;;;;;;5036656;28;20036;-80
2021/12/05 16:16:13;;;;;;;8.60;7.78;;;5.70;99.90;;;;;;5035915;28;20053;-81
2021/12/05 16:18:46;;;;;;;10.60;8.02;;;5.60;99.90;;;;;;5037292;28;20087;-82
2021/12/05 16:21:33;;;;;;;8.98;7.80;;;5.60;99.90;;;;;;5037367;28;20018;-81
2021/12/05 16:24:10;;;;;;;8.02;7.25;;;5.60;99.90;;;;;;5042883;28;20029;-80
2021/12/05 16:26:38;;;;;;;8.27;6.93;;;5.50;99.90;;;;;;5043656;28;20088;-81
2021/12/05 16:29:07;;;;;;;8.27;7.22;;;5.60;99.90;;;;;;5057287;28;20036;-83
2021/12/05 16:31:34;;;;;;;10.32;7.65;;;5.50;99.90;;;;;;5052763;28;20517;-83
2021/12/05 16:34:03;;;;;;;8.07;7.18;;;5.50;99.90;;;;;;5046349;28;20120;-82
2021/12/05 16:36:39;;;;;;;10.07;9.05;;;5.50;99.90;;;;;;5044584;28;20024;-84
2021/12/05 16:39:10;;;;;;;10.05;8.05;;;5.50;99.90;;;;;;5049137;28;20044;-84
2021/12/05 16:41:37;;;;;;;9.48;8.45;;;5.50;99.90;;;;;;5040026;28;20025;-83
2021/12/05 16:44:10;;;;;;;9.73;8.50;;;5.40;99.90;;;;;;5039228;28;20083;-85
2021/12/05 16:46:43;;;;;;;9.57;8.27;;;5.40;99.90;;;;;;5038865;28;20025;-84
2021/12/05 16:49:16;;;;;;;9.90;8.20;;;5.40;99.90;;;;;;5034118;28;20619;-82
2021/12/05 16:51:55;;;;;;;12.05;8.88;;;5.40;99.90;;;;;;5043802;28;20017;-84
2021/12/05 16:54:28;;;;;;;10.20;9.15;;;5.40;99.90;;;;;;5059167;28;20028;-84
2021/12/05 16:57:00;;;;;;;9.05;8.15;;;5.40;99.90;;;;;;5053403;28;20189;-83
2021/12/05 16:59:53;;;;;;;12.65;9.80;;;5.40;99.90;;;;;;5057064;28;20103;-87
2021/12/05 17:02:47;;;;;;;12.90;11.13;;;5.40;99.90;;;;;;5051491;28;20044;-87
2021/12/05 17:05:33;;;;;;;19.27;11.82;;;5.40;99.90;;;;;;5055609;28;20040;-87
2021/12/05 17:08:22;;;;;;;13.88;10.48;;;5.50;99.90;;;;;;5063094;28;20009;-86
2021/12/05 17:11:00;;;;;;;17.80;12.65;;;5.40;99.90;;;;;;5044926;28;20049;-87
2021/12/05 17:13:40;;;;;;;17.55;12.40;;;5.50;99.90;;;;;;5056821;28;20108;-88
2021/12/05 17:16:13;;;;;;;11.82;10.15;;;5.40;99.90;;;;;;5058130;28;20025;-88
2021/12/05 17:19:06;;;;;;;12.85;9.82;;;5.40;99.90;;;;;;5058590;28;20025;-87
2021/12/05 17:21:48;;;;;;;10.18;9.07;;;5.40;99.90;;;;;;5056067;28;20041;-86
2021/12/05 17:24:16;;;;;;;11.15;9.65;;;5.40;99.90;;;;;;5057184;28;20037;-86
2021/12/05 17:26:54;;;;;;;16.65;11.27;;;5.40;99.90;;;;;;5058474;28;20017;-87
2021/12/05 17:29:28;;;;;;;17.05;10.93;;;5.30;99.90;;;;;;5062853;28;20025;-86
2021/12/05 17:32:00;;;;;;;22.73;14.10;;;5.30;99.90;;;;;;5057779;28;20013;-86
2021/12/05 17:34:35;;;;;;;18.70;11.80;;;5.30;99.90;;;;;;5057246;28;20040;-87
2021/12/05 17:37:02;;;;;;;19.92;11.73;;;5.30;99.90;;;;;;5056847;28;20083;-78
2021/12/05 17:39:31;;;;;;;24.83;13.70;;;5.30;99.90;;;;;;5062611;28;20192;-84
2021/12/05 17:42:16;;;;;;;27.63;14.15;;;5.30;99.90;;;;;;5069139;28;20018;-83
2021/12/05 17:44:43;;;;;;;25.60;15.60;;;5.30;99.90;;;;;;5049289;28;20048;-85
2021/12/05 17:47:14;;;;;;;28.95;16.83;;;5.30;99.90;;;;;;5040200;28;20040;-85
2021/12/05 17:49:43;;;;;;;22.77;14.50;;;5.20;99.90;;;;;;5040228;28;20384;-84
2021/12/05 17:52:12;;;;;;;18.13;12.60;;;5.30;99.90;;;;;;5043084;28;20017;-84
2021/12/05 17:54:51;;;;;;;14.07;12.20;;;5.10;99.90;;;;;;5043080;28;20057;-84
2021/12/05 17:57:32;;;;;;;16.48;10.75;;;5.20;99.90;;;;;;5040697;28;20120;-84
2021/12/05 18:00:12;;;;;;;13.70;11.07;;;5.20;99.90;;;;;;5044095;28;20104;-84
2021/12/05 18:02:53;;;;;;;13.95;10.90;;;5.30;99.90;;;;;;5039695;28;20021;-85
2021/12/05 18:05:30;;;;;;;18.48;12.20;;;5.30;99.90;;;;;;5039790;28;20034;-86
2021/12/05 18:08:00;;;;;;;15.30;12.45;;;5.20;99.90;;;;;;5041360;28;20112;-84
2021/12/05 18:10:30;;;;;;;16.00;12.55;;;5.20;99.90;;;;;;5041572;28;20053;-85
2021/12/05 18:12:59;;;;;;;20.83;13.10;;;5.20;99.90;;;;;;5045740;28;20136;-85
2021/12/05 18:15:29;;;;;;;17.88;12.52;;;5.20;99.90;;;;;;5046048;28;21540;-84
2021/12/05 18:17:58;;;;;;;16.70;13.05;;;5.20;99.90;;;;;;5040258;28;20021;-84
2021/12/05 18:20:26;;;;;;;18.05;12.73;;;5.10;99.90;;;;;;5036480;28;20477;-84
2021/12/05 18:22:54;;;;;;;22.60;14.15;;;5.90;99.90;;;;;;5044085;28;20435;-85